logo
Search for airport 
image banner adimage banner adimage banner ad
image banner ad

HL68 - Al Bumbah North Air Base

Located in Bombah, Libyan Arab Jamahiriya

ICAO - , IATA -

Data provided by Airmate  

General information

Coordinates: N32°27'10" E23°7'7"
Elevation is 33 feet MSL.
Magnetic variation is 4° East
View others Airports in Darnah District

Operational data

Special qualification required
Current time UTC:
Current local time:
Weather at : - ( 0 km )
METAR: KROG 152058Z 20013G22KT 10SM CLR 35/22 A2993 RMK AO2 PK WND 19026/2041 SLP117 T03500217 56018
View NOTAMs / SUP AIP / TFR affecting this airport [VIEW]
Communications frequencies: [VIEW]

Runways:

Airport contact information

Address: Bombah Libyan Arab Jamahiriya

Satellite view of HL68